createdAt,value
2019-01-29T00:04:09.940Z,8.32
2019-01-29T00:09:17.027Z,8.58
2019-01-29T00:14:25.299Z,8.21
2019-01-29T00:19:33.472Z,6.44
2019-01-29T00:24:40.592Z,6.07
2019-01-29T00:29:48.832Z,5.47
2019-01-29T00:34:56.285Z,6.29
2019-01-29T00:40:03.526Z,7.50
2019-01-29T00:45:11.552Z,8.66
2019-01-29T00:50:19.647Z,8.86
2019-01-29T00:55:28.105Z,9.04
2019-01-29T01:00:36.217Z,8.87
2019-01-29T01:05:44.415Z,8.45
2019-01-29T01:10:52.624Z,6.73
2019-01-29T01:16:00.585Z,7.14
2019-01-29T01:21:08.686Z,6.41
2019-01-29T01:31:17.667Z,5.50
2019-01-29T01:36:25.816Z,7.71
2019-01-29T01:41:34.029Z,6.94
2019-01-29T01:46:41.396Z,6.60
2019-01-29T01:51:48.743Z,7.72
2019-01-29T01:56:56.030Z,8.68
2019-01-29T02:02:04.145Z,7.76
2019-01-29T02:07:12.264Z,7.25
2019-01-29T02:12:20.343Z,7.58
2019-01-29T02:22:35.221Z,5.47
2019-01-29T02:27:43.465Z,5.67
2019-01-29T02:32:50.566Z,4.88
2019-01-29T02:37:58.760Z,4.83
2019-01-29T02:43:06.959Z,4.21
2019-01-29T02:48:15.539Z,4.32
2019-01-29T02:53:23.614Z,4.34
2019-01-29T02:58:31.802Z,4.30
2019-01-29T03:03:42.004Z,4.51
2019-01-29T03:08:40.126Z,4.14
2019-01-29T03:13:48.199Z,3.66
2019-01-29T03:20:02.723Z,5.02
2019-01-29T03:25:09.826Z,4.24
2019-01-29T03:30:18.049Z,3.48
2019-01-29T03:35:26.133Z,3.43
2019-01-29T03:40:34.520Z,3.82
2019-01-29T03:45:42.711Z,4.37
2019-01-29T03:50:49.994Z,4.22
2019-01-29T03:55:58.149Z,4.11
2019-01-29T04:01:06.474Z,3.92
2019-01-29T04:06:13.721Z,4.61
2019-01-29T04:11:21.036Z,4.01
2019-01-29T04:16:28.965Z,3.92
2019-01-29T04:21:37.232Z,3.95
2019-01-29T04:26:45.316Z,3.98
2019-01-29T04:31:53.543Z,3.72
2019-01-29T04:37:00.650Z,3.67
2019-01-29T04:42:08.815Z,3.30
2019-01-29T04:47:16.894Z,4.10
2019-01-29T04:52:25.141Z,3.71
2019-01-29T04:57:33.235Z,4.12
2019-01-29T05:02:41.400Z,3.93
2019-01-29T05:07:49.492Z,3.12
2019-01-29T05:12:57.808Z,2.84
2019-01-29T05:18:05.880Z,2.51
2019-01-29T05:23:14.119Z,3.08
2019-01-29T05:28:21.350Z,3.45
2019-01-29T05:33:29.495Z,2.97
2019-01-29T05:38:50.611Z,3.08
2019-01-29T05:43:38.073Z,2.92
2019-01-29T05:48:47.248Z,2.83
2019-01-29T05:53:45.825Z,3.19
2019-01-29T05:58:53.052Z,3.55
2019-01-29T06:04:00.333Z,3.71
2019-01-29T06:09:07.770Z,3.64
2019-01-29T06:14:22.482Z,4.19
2019-01-29T06:19:32.616Z,4.01
2019-01-29T06:24:25.568Z,4.13
2019-01-29T06:29:30.258Z,4.31
2019-01-29T06:34:32.213Z,4.36
2019-01-29T06:39:49.245Z,4.22
2019-01-29T06:44:40.657Z,4.21
2019-01-29T06:49:44.150Z,4.19
2019-01-29T06:54:45.433Z,3.84
2019-01-29T06:59:42.546Z,3.86
2019-01-29T07:04:51.525Z,4.86
2019-01-29T07:09:58.590Z,4.86
2019-01-29T07:15:06.945Z,5.38
2019-01-29T07:20:16.674Z,4.90
2019-01-29T07:25:15.381Z,5.00
2019-01-29T07:30:22.612Z,4.71
2019-01-29T07:35:30.032Z,4.74
2019-01-29T07:40:38.085Z,5.56
2019-01-29T07:45:46.294Z,4.42
2019-01-29T07:51:07.382Z,4.27
2019-01-29T07:56:08.698Z,4.28
2019-01-29T08:00:55.912Z,4.32
2019-01-29T08:06:04.346Z,5.04
2019-01-29T08:11:11.585Z,4.66
2019-01-29T08:16:19.596Z,5.09
2019-01-29T08:21:27.821Z,4.57
2019-01-29T08:26:35.909Z,4.75
2019-01-29T08:31:44.160Z,4.72
2019-01-29T08:36:51.580Z,5.16
2019-01-29T08:41:59.596Z,4.81
2019-01-29T08:47:20.604Z,5.01
2019-01-29T08:52:11.590Z,4.07
2019-01-29T08:57:17.373Z,4.57
2019-01-29T09:02:26.472Z,4.80
2019-01-29T09:07:24.763Z,4.65
2019-01-29T09:12:32.970Z,4.82
2019-01-29T09:17:40.097Z,4.09
2019-01-29T09:22:48.304Z,4.80
2019-01-29T09:27:55.763Z,4.59
2019-01-29T09:33:03.972Z,4.81
2019-01-29T09:38:11.273Z,5.08
2019-01-29T09:43:32.369Z,4.56
2019-01-29T09:48:19.711Z,4.39
2019-01-29T09:53:39.722Z,4.31
2019-01-29T09:58:42.142Z,4.57
2019-01-29T10:08:33.318Z,4.26
2019-01-29T10:13:41.527Z,4.71
2019-01-29T10:18:48.972Z,4.83
2019-01-29T10:23:57.070Z,4.90
2019-01-29T10:29:17.125Z,4.73
2019-01-29T10:34:05.251Z,5.42
2019-01-29T10:39:13.531Z,5.18
2019-01-29T10:44:33.669Z,6.25
2019-01-29T10:49:21.037Z,6.77
2019-01-29T10:54:41.263Z,6.33
2019-01-29T10:59:28.751Z,5.49
2019-01-29T11:04:49.732Z,5.80
2019-01-29T11:09:36.987Z,5.22
2019-01-29T11:14:44.382Z,6.09
2019-01-29T11:19:51.673Z,6.80
2019-01-29T11:25:12.729Z,7.14
2019-01-29T11:30:14.015Z,6.10
2019-01-29T11:35:14.824Z,6.60
2019-01-29T11:40:15.948Z,7.59
2019-01-29T11:45:16.920Z,7.64
2019-01-29T11:50:18.139Z,7.38
2019-01-29T11:55:18.130Z,8.76
2019-01-29T12:00:19.265Z,10.68
2019-01-29T12:05:20.376Z,10.08
2019-01-29T12:10:20.679Z,10.48
2019-01-29T12:15:20.676Z,10.18
2019-01-29T12:20:21.954Z,9.41
2019-01-29T12:25:09.062Z,9.55
2019-01-29T12:30:30.896Z,9.86
2019-01-29T12:35:31.090Z,9.77
2019-01-29T12:40:31.285Z,10.08
2019-01-29T12:45:32.475Z,10.34
2019-01-29T12:50:19.871Z,10.13
2019-01-29T12:55:40.998Z,9.84
2019-01-29T13:00:28.255Z,10.71
2019-01-29T13:05:48.423Z,10.97
2019-01-29T13:10:48.568Z,11.36
2019-01-29T13:15:49.695Z,10.85
2019-01-29T13:20:49.970Z,10.39
2019-01-29T13:25:49.964Z,8.90
2019-01-29T13:30:51.106Z,8.17
2019-01-29T13:35:52.187Z,9.20
2019-01-29T13:40:53.334Z,9.52
2019-01-29T13:45:54.305Z,9.37
2019-01-29T13:50:55.524Z,8.94
2019-01-29T13:55:55.661Z,8.52
2019-01-29T14:00:55.891Z,9.47
2019-01-29T14:05:56.072Z,9.16
2019-01-29T14:10:56.320Z,9.31
2019-01-29T14:15:43.418Z,10.86
2019-01-29T14:20:51.676Z,11.04
2019-01-29T14:26:12.779Z,8.74
2019-01-29T14:31:13.221Z,6.08
2019-01-29T14:36:16.902Z,4.56
2019-01-29T14:46:17.150Z,3.24
2019-01-29T14:51:04.534Z,2.92
2019-01-29T14:56:25.620Z,2.46
2019-01-29T15:01:13.840Z,2.03
2019-01-29T15:06:35.788Z,2.14
2019-01-29T15:11:35.273Z,2.15
2019-01-29T15:16:23.405Z,2.45
2019-01-29T15:26:36.241Z,2.41
2019-01-29T15:31:44.644Z,2.25
2019-01-29T15:37:04.644Z,2.71
2019-01-29T15:41:53.101Z,2.66
2019-01-29T15:47:00.347Z,3.09
2019-01-29T15:52:07.687Z,1.89
2019-01-29T15:58:20.695Z,2.94
2019-01-29T16:03:40.755Z,1.92
2019-01-29T16:08:28.839Z,2.48
2019-01-29T16:13:37.121Z,2.01
2019-01-29T16:18:44.324Z,2.80
2019-01-29T16:23:51.887Z,2.43
2019-01-29T16:29:12.018Z,2.57
2019-01-29T16:34:00.102Z,2.89
2019-01-29T16:39:08.428Z,2.73
2019-01-29T16:44:28.661Z,2.32
2019-01-29T16:49:28.743Z,2.85
2019-01-29T16:54:16.316Z,2.69
2019-01-29T16:59:24.386Z,2.97
2019-01-29T17:04:32.669Z,3.47
2019-01-29T17:09:39.770Z,2.66
2019-01-29T17:19:56.289Z,3.24
2019-01-29T17:25:16.099Z,4.21
2019-01-29T17:30:04.080Z,4.71
2019-01-29T17:35:12.409Z,4.21
2019-01-29T17:40:20.478Z,4.03
2019-01-29T17:45:41.716Z,4.79
2019-01-29T17:50:28.833Z,4.38
2019-01-29T18:00:41.476Z,5.40
2019-01-29T18:06:02.945Z,5.29
2019-01-29T18:10:50.202Z,5.72
2019-01-29T18:15:57.647Z,6.33
2019-01-29T18:21:17.621Z,9.37
2019-01-29T18:26:06.019Z,8.45
2019-01-29T18:31:13.222Z,8.19
2019-01-29T18:36:20.560Z,7.61
2019-01-29T18:41:28.852Z,8.63
2019-01-29T18:46:49.100Z,8.29
2019-01-29T18:51:49.109Z,8.17
2019-01-29T18:56:50.200Z,7.45
2019-01-29T19:01:38.247Z,7.08
2019-01-29T19:06:59.586Z,5.73
2019-01-29T19:11:59.580Z,5.96
2019-01-29T19:16:47.906Z,4.84
2019-01-29T19:22:07.879Z,4.19
2019-01-29T19:26:55.333Z,4.24
2019-01-29T19:32:02.423Z,4.04
2019-01-29T19:37:23.574Z,4.05
2019-01-29T19:42:27.631Z,3.71
2019-01-29T19:47:11.775Z,4.37
2019-01-29T19:52:18.369Z,4.04
2019-01-29T19:57:25.803Z,4.44
2019-01-29T20:02:45.918Z,4.37
2019-01-29T20:07:33.662Z,4.96
2019-01-29T20:12:40.895Z,5.55
2019-01-29T20:17:48.177Z,5.38
2019-01-29T20:22:55.859Z,6.17
2019-01-29T20:28:03.144Z,4.95
2019-01-29T20:33:10.362Z,5.05
2019-01-29T20:38:35.158Z,4.45
2019-01-29T20:43:18.863Z,3.83
2019-01-29T20:48:26.141Z,4.09
2019-01-29T20:53:47.288Z,3.16
2019-01-29T20:58:35.572Z,3.02
2019-01-29T21:03:55.665Z,3.32
2019-01-29T21:08:42.836Z,2.90
2019-01-29T21:13:51.128Z,2.89
2019-01-29T21:19:11.204Z,2.42
2019-01-29T21:24:12.298Z,1.96
2019-01-29T21:29:03.134Z,1.90
2019-01-29T21:34:06.891Z,1.87
2019-01-29T21:39:14.241Z,2.15
2019-01-29T21:44:34.185Z,1.85
2019-01-29T21:49:22.423Z,2.16
2019-01-29T21:54:29.518Z,2.27
2019-01-29T21:59:50.672Z,2.67
2019-01-29T22:04:51.642Z,3.16
2019-01-29T22:09:39.957Z,3.24
2019-01-29T22:14:47.185Z,3.28
2019-01-29T22:19:54.518Z,2.77
2019-01-29T22:30:04.672Z,3.37
2019-01-29T22:35:15.612Z,3.38
2019-01-29T22:40:04.030Z,3.99
2019-01-29T22:45:11.302Z,4.34
2019-01-29T22:55:19.476Z,4.79
2019-01-29T23:00:26.872Z,4.96
2019-01-29T23:05:34.162Z,4.53
2019-01-29T23:15:49.604Z,4.82
2019-01-29T23:20:56.973Z,4.66
2019-01-29T23:26:04.048Z,3.79
2019-01-29T23:31:12.533Z,3.99
2019-01-29T23:36:19.784Z,2.61
2019-01-29T23:41:26.925Z,2.28
2019-01-29T23:46:35.099Z,2.15
2019-01-29T23:51:42.418Z,1.85
2019-01-29T23:56:49.491Z,1.70
